createdAt,value
2022-08-31T00:00:18.231Z,98479.59
2022-08-31T00:01:19.603Z,98474.56
2022-08-31T00:02:20.976Z,98475.34
2022-08-31T00:03:22.414Z,98475.75
2022-08-31T00:04:25.206Z,98469.16
2022-08-31T00:05:27.813Z,98474.19
2022-08-31T00:06:33.200Z,98471.88
2022-08-31T00:07:34.562Z,98459.56
2022-08-31T00:08:35.961Z,98468.41
2022-08-31T00:09:37.396Z,98477.25
2022-08-31T00:10:38.992Z,98467.22
2022-08-31T00:11:41.920Z,98472.59
2022-08-31T00:12:48.836Z,98469.09
2022-08-31T00:13:50.192Z,98471.41
2022-08-31T00:14:52.936Z,98461.41
2022-08-31T00:15:55.625Z,98467.53
2022-08-31T00:16:57.216Z,98469.44
2022-08-31T00:17:58.663Z,98467.94
2022-08-31T00:19:00.018Z,98475.59
2022-08-31T00:20:01.511Z,98465.59
2022-08-31T00:21:03.324Z,98467.09
2022-08-31T00:22:04.687Z,98471.72
2022-08-31T00:23:07.263Z,98474.41
2022-08-31T00:24:08.690Z,98469.47
2022-08-31T00:25:10.087Z,98477.53
2022-08-31T00:26:11.509Z,98480.19
2022-08-31T00:27:12.896Z,98481.34
2022-08-31T00:28:14.652Z,98485.94
2022-08-31T00:29:16.012Z,98490.97
2022-08-31T00:30:17.554Z,98484.38
2022-08-31T00:31:18.931Z,98497.47
2022-08-31T00:32:22.385Z,98501.31
2022-08-31T00:33:24.999Z,98497.44
2022-08-31T00:34:26.352Z,98502.44
2022-08-31T00:35:28.665Z,98506.25
2022-08-31T00:36:30.104Z,98515.50
2022-08-31T00:37:31.722Z,98509.31
2022-08-31T00:38:33.241Z,98518.56
2022-08-31T00:39:34.625Z,98516.97
2022-08-31T00:40:44.275Z,98517.41
2022-08-31T00:41:45.944Z,98517.06
2022-08-31T00:42:47.336Z,98517.88
2022-08-31T00:43:51.752Z,98524.03
2022-08-31T00:44:53.099Z,98520.94
2022-08-31T00:45:54.440Z,98526.72
2022-08-31T00:46:55.824Z,98531.31
2022-08-31T00:47:57.216Z,98535.94
2022-08-31T00:49:03.725Z,98530.94
2022-08-31T00:50:07.176Z,98535.56
2022-08-31T00:51:08.660Z,98534.78
2022-08-31T00:52:17.712Z,98532.91
2022-08-31T00:53:19.540Z,98532.13
2022-08-31T00:54:24.385Z,98539.09
2022-08-31T00:55:28.701Z,98545.25
2022-08-31T00:56:30.239Z,98537.56
2022-08-31T00:57:34.605Z,98544.47
2022-08-31T00:58:36.354Z,98542.88
2022-08-31T00:59:39.397Z,98543.22
2022-08-31T01:00:40.931Z,98546.28
2022-08-31T01:01:42.375Z,98541.59
2022-08-31T01:02:44.445Z,98547.63
2022-08-31T01:03:46.916Z,98544.84
2022-08-31T01:04:48.261Z,98545.56
2022-08-31T01:05:49.966Z,98550.03
2022-08-31T01:06:52.007Z,98540.69
2022-08-31T01:07:53.350Z,98542.94
2022-08-31T01:08:55.933Z,98535.91
2022-08-31T01:09:58.625Z,98539.69
2022-08-31T01:11:00.264Z,98539.25
2022-08-31T01:12:02.104Z,98540.41
2022-08-31T01:13:03.896Z,98544.19
2022-08-31T01:14:05.295Z,98539.97
2022-08-31T01:15:07.295Z,98538.03
2022-08-31T01:16:12.802Z,98537.97
2022-08-31T01:17:15.012Z,98531.81
2022-08-31T01:18:16.942Z,98534.84
2022-08-31T01:19:38.644Z,98536.69
2022-08-31T01:21:00.556Z,98534.78
2022-08-31T01:22:19.238Z,98535.69
2022-08-31T01:23:23.443Z,98536.38
2022-08-31T01:24:26.957Z,98524.88
2022-08-31T01:25:33.793Z,98530.66
2022-08-31T01:26:37.753Z,98524.00
2022-08-31T01:27:39.404Z,98522.81
2022-08-31T01:28:41.152Z,98530.47
2022-08-31T01:29:42.696Z,98540.84
2022-08-31T01:30:44.307Z,98526.94
2022-08-31T01:31:46.972Z,98525.00
2022-08-31T01:32:48.464Z,98527.63
2022-08-31T01:33:49.842Z,98536.84
2022-08-31T01:34:51.260Z,98528.34
2022-08-31T01:35:52.976Z,98536.81
2022-08-31T01:36:54.573Z,98534.06
2022-08-31T01:37:56.541Z,98533.28
2022-08-31T01:38:58.283Z,98535.25
2022-08-31T01:39:59.672Z,98543.28
2022-08-31T01:41:01.873Z,98543.66
2022-08-31T01:42:03.300Z,98542.50
2022-08-31T01:43:04.682Z,98539.75
2022-08-31T01:44:06.065Z,98543.22
2022-08-31T01:45:08.037Z,98537.06
2022-08-31T01:46:10.964Z,98555.59
2022-08-31T01:47:12.488Z,98545.56
2022-08-31T01:48:14.073Z,98559.03
2022-08-31T01:49:15.964Z,98547.44
2022-08-31T01:50:17.375Z,98544.00
2022-08-31T01:51:20.456Z,98552.06
2022-08-31T01:52:22.001Z,98557.03
2022-08-31T01:53:25.904Z,98555.97
2022-08-31T01:54:27.329Z,98558.34
2022-08-31T01:55:28.668Z,98555.97
2022-08-31T01:56:32.109Z,98565.91
2022-08-31T01:57:36.260Z,98561.66
2022-08-31T01:59:02.127Z,98558.50
2022-08-31T02:00:23.724Z,98563.81
2022-08-31T02:01:32.958Z,98561.50
2022-08-31T02:02:36.213Z,98568.38
2022-08-31T02:03:37.656Z,98569.59
2022-08-31T02:04:39.052Z,98561.84
2022-08-31T02:05:40.745Z,98568.81
2022-08-31T02:06:43.691Z,98567.66
2022-08-31T02:07:45.273Z,98565.38
2022-08-31T02:08:46.683Z,98567.66
2022-08-31T02:09:48.513Z,98566.84
2022-08-31T02:10:50.032Z,98564.44
2022-08-31T02:11:51.797Z,98567.00
2022-08-31T02:12:53.220Z,98568.22
2022-08-31T02:14:04.261Z,98565.47
2022-08-31T02:15:06.321Z,98564.59
2022-08-31T02:16:07.791Z,98564.59
2022-08-31T02:17:09.713Z,98558.13
2022-08-31T02:18:12.011Z,98555.78
2022-08-31T02:19:13.736Z,98555.78
2022-08-31T02:20:15.684Z,98561.91
2022-08-31T02:21:17.094Z,98556.56
2022-08-31T02:22:18.519Z,98556.88
2022-08-31T02:23:20.203Z,98549.94
2022-08-31T02:24:21.652Z,98556.47
2022-08-31T02:25:23.032Z,98559.22
2022-08-31T02:26:24.958Z,98557.63
2022-08-31T02:27:26.417Z,98561.41
2022-08-31T02:28:27.867Z,98562.91
2022-08-31T02:29:29.459Z,98561.31
2022-08-31T02:30:30.929Z,98562.00
2022-08-31T02:31:32.826Z,98561.22
2022-08-31T02:32:34.957Z,98562.38
2022-08-31T02:33:36.321Z,98557.72
2022-08-31T02:34:38.255Z,98562.69
2022-08-31T02:35:40.106Z,98559.16
2022-08-31T02:36:41.468Z,98559.94
2022-08-31T02:37:43.810Z,98557.69
2022-08-31T02:38:46.283Z,98552.63
2022-08-31T02:39:47.664Z,98556.47
2022-08-31T02:40:51.186Z,98549.13
2022-08-31T02:41:52.937Z,98557.59
2022-08-31T02:42:54.491Z,98544.16
2022-08-31T02:43:59.296Z,98551.22
2022-08-31T02:45:00.873Z,98556.53
2022-08-31T02:46:02.313Z,98554.91
2022-08-31T02:47:10.010Z,98560.66
2022-08-31T02:48:28.099Z,98555.28
2022-08-31T02:49:31.571Z,98553.72
2022-08-31T02:50:33.231Z,98549.53
2022-08-31T02:51:34.589Z,98558.75
2022-08-31T02:52:37.422Z,98549.84
2022-08-31T02:53:39.332Z,98541.69
2022-08-31T02:54:41.765Z,98552.81
2022-08-31T02:55:43.495Z,98547.78
2022-08-31T02:56:44.868Z,98552.38
2022-08-31T02:57:46.252Z,98553.88
2022-08-31T02:58:47.798Z,98551.56
2022-08-31T02:59:49.507Z,98558.47
2022-08-31T03:00:51.527Z,98550.41
2022-08-31T03:01:53.081Z,98551.56
2022-08-31T03:02:54.656Z,98558.09
2022-08-31T03:03:57.149Z,98558.09
2022-08-31T03:05:00.177Z,98560.16
2022-08-31T03:06:01.912Z,98555.91
2022-08-31T03:07:03.572Z,98554.34
2022-08-31T03:08:05.385Z,98552.81
2022-08-31T03:09:06.747Z,98555.84
2022-08-31T03:10:09.655Z,98558.88
2022-08-31T03:11:11.080Z,98558.47
2022-08-31T03:12:12.542Z,98557.69
2022-08-31T03:13:15.039Z,98556.16
2022-08-31T03:14:18.008Z,98554.25
2022-08-31T03:15:20.956Z,98559.63
2022-08-31T03:16:22.452Z,98563.84
2022-08-31T03:17:23.987Z,98552.31
2022-08-31T03:18:25.379Z,98560.72
2022-08-31T03:19:26.758Z,98556.50
2022-08-31T03:20:28.351Z,98562.22
2022-08-31T03:21:29.676Z,98559.53
2022-08-31T03:22:31.632Z,98560.69
2022-08-31T03:23:32.991Z,98563.00
2022-08-31T03:24:34.403Z,98559.53
2022-08-31T03:25:35.911Z,98560.31
2022-08-31T03:26:40.985Z,98556.84
2022-08-31T03:27:42.432Z,98558.78
2022-08-31T03:28:43.882Z,98558.78
2022-08-31T03:30:12.758Z,98552.97
2022-08-31T03:31:16.597Z,98558.34
2022-08-31T03:32:18.204Z,98561.03
2022-08-31T03:33:22.582Z,98561.78
2022-08-31T03:34:24.052Z,98557.56
2022-08-31T03:35:25.427Z,98557.56
2022-08-31T03:36:26.788Z,98562.94
2022-08-31T03:37:28.387Z,98554.88
2022-08-31T03:38:33.911Z,98558.34
2022-08-31T03:39:35.362Z,98558.34
2022-08-31T03:40:36.752Z,98559.47
2022-08-31T03:41:38.790Z,98552.56
2022-08-31T03:42:41.895Z,98557.94
2022-08-31T03:43:45.471Z,98545.63
2022-08-31T03:44:47.296Z,98547.53
2022-08-31T03:45:55.950Z,98552.47
2022-08-31T03:46:57.411Z,98544.41
2022-08-31T03:47:59.455Z,98550.22
2022-08-31T03:49:01.591Z,98549.44
2022-08-31T03:50:04.778Z,98547.88
2022-08-31T03:51:25.579Z,98547.88
2022-08-31T03:52:26.966Z,98550.94
2022-08-31T03:53:35.668Z,98549.38
2022-08-31T03:54:38.516Z,98549.38
2022-08-31T03:55:41.791Z,98550.16
2022-08-31T03:56:44.352Z,98552.06
2022-08-31T03:57:45.714Z,98553.22
2022-08-31T03:58:47.439Z,98555.91
2022-08-31T04:00:08.679Z,98558.59
2022-08-31T04:01:15.923Z,98558.22
2022-08-31T04:02:43.091Z,98556.66
2022-08-31T04:04:03.292Z,98557.78
2022-08-31T04:05:26.043Z,98553.53
2022-08-31T04:06:45.500Z,98550.09
2022-08-31T04:08:05.626Z,98555.09
2022-08-31T04:09:25.341Z,98556.66
2022-08-31T04:10:51.620Z,98553.63
2022-08-31T04:12:08.152Z,98555.81
2022-08-31T04:13:30.354Z,98556.19
2022-08-31T04:14:46.927Z,98560.00
2022-08-31T04:16:07.999Z,98559.28
2022-08-31T04:17:28.288Z,98563.88
2022-08-31T04:18:48.855Z,98564.25
2022-08-31T04:19:50.244Z,98560.75
2022-08-31T04:21:12.166Z,98561.91
2022-08-31T04:22:13.578Z,98563.03
2022-08-31T04:23:26.235Z,98564.94
2022-08-31T04:24:27.869Z,98563.03
2022-08-31T04:25:29.314Z,98573.78
2022-08-31T04:26:32.846Z,98563.44
2022-08-31T04:27:35.252Z,98566.13
2022-08-31T04:28:36.620Z,98564.25
2022-08-31T04:29:38.467Z,98561.56
2022-08-31T04:30:41.264Z,98567.28
2022-08-31T04:31:42.803Z,98571.09
2022-08-31T04:32:44.203Z,98570.34
2022-08-31T04:33:45.806Z,98570.34
2022-08-31T04:34:47.255Z,98571.09
2022-08-31T04:35:48.609Z,98573.00
2022-08-31T04:36:49.992Z,98574.94
2022-08-31T04:37:51.909Z,98575.69
2022-08-31T04:38:54.564Z,98576.84
2022-08-31T04:39:56.204Z,98577.63
2022-08-31T04:41:04.280Z,98580.31
2022-08-31T04:42:05.935Z,98577.63
2022-08-31T04:43:09.096Z,98575.69
2022-08-31T04:44:10.489Z,98581.84
2022-08-31T04:45:12.596Z,98581.84
2022-08-31T04:46:15.166Z,98578.38
2022-08-31T04:47:16.636Z,98590.28
2022-08-31T04:48:18.612Z,98581.44
2022-08-31T04:49:21.641Z,98580.66
2022-08-31T04:50:23.118Z,98588.72
2022-08-31T04:51:43.621Z,98586.44
2022-08-31T04:52:45.021Z,98598.75
2022-08-31T04:54:07.315Z,98590.28
2022-08-31T04:55:11.540Z,98590.28
2022-08-31T04:56:17.243Z,98598.34
2022-08-31T04:57:18.651Z,98590.69
2022-08-31T04:58:20.541Z,98591.81
2022-08-31T04:59:21.943Z,98597.19
2022-08-31T05:00:43.766Z,98596.78
2022-08-31T05:01:47.736Z,98600.94
2022-08-31T05:03:12.029Z,98595.16
2022-08-31T05:04:14.876Z,98606.69
2022-08-31T05:05:16.654Z,98595.16
2022-08-31T05:06:23.551Z,98602.09
2022-08-31T05:07:25.107Z,98609.78
2022-08-31T05:08:28.380Z,98615.94
2022-08-31T05:09:29.767Z,98616.72
2022-08-31T05:10:31.334Z,98601.72
2022-08-31T05:11:33.408Z,98615.94
2022-08-31T05:12:34.838Z,98615.94
2022-08-31T05:13:36.181Z,98620.16
2022-08-31T05:14:37.572Z,98618.63
2022-08-31T05:15:47.953Z,98623.66
2022-08-31T05:16:54.399Z,98619.41
2022-08-31T05:17:57.108Z,98621.31
2022-08-31T05:18:59.435Z,98627.47
2022-08-31T05:20:01.094Z,98627.47
2022-08-31T05:21:10.034Z,98625.22
2022-08-31T05:22:11.800Z,98632.50
2022-08-31T05:23:15.568Z,98638.66
2022-08-31T05:24:18.132Z,98632.50
2022-08-31T05:25:19.524Z,98630.91
2022-08-31T05:26:26.581Z,98630.59
2022-08-31T05:27:28.564Z,98627.91
2022-08-31T05:28:30.397Z,98629.03
2022-08-31T05:29:32.397Z,98620.97
2022-08-31T05:31:00.006Z,98631.34
2022-08-31T05:32:08.180Z,98625.22
2022-08-31T05:33:09.561Z,98625.22
2022-08-31T05:34:12.287Z,98625.22
2022-08-31T05:35:14.185Z,98624.84
2022-08-31T05:36:17.789Z,98619.56
2022-08-31T05:37:19.180Z,98626.06
2022-08-31T05:38:20.795Z,98631.44
2022-08-31T05:39:23.220Z,98626.06
2022-08-31T05:40:24.621Z,98626.41
2022-08-31T05:41:26.368Z,98627.94
2022-08-31T05:42:27.772Z,98629.84
2022-08-31T05:43:29.625Z,98628.38
2022-08-31T05:44:33.574Z,98627.25
2022-08-31T05:45:34.944Z,98628.03
2022-08-31T05:46:36.636Z,98628.78
2022-08-31T05:47:39.505Z,98626.88
2022-08-31T05:48:41.359Z,98627.66
2022-08-31T05:49:46.118Z,98634.63
2022-08-31T05:50:51.843Z,98630.00
2022-08-31T05:51:53.483Z,98630.91
2022-08-31T05:52:55.125Z,98629.81
2022-08-31T05:53:58.240Z,98630.56
2022-08-31T05:54:59.578Z,98629.44
2022-08-31T05:56:04.819Z,98632.13
2022-08-31T05:57:07.019Z,98623.69
2022-08-31T05:58:08.719Z,98628.72
2022-08-31T05:59:10.261Z,98634.88
2022-08-31T06:00:11.956Z,98626.09
2022-08-31T06:01:21.674Z,98630.69
2022-08-31T06:02:36.265Z,98636.50
2022-08-31T06:03:37.630Z,98629.91
2022-08-31T06:04:39.594Z,98637.22
2022-08-31T06:05:41.094Z,98634.16
2022-08-31T06:06:42.584Z,98634.16
2022-08-31T06:07:46.809Z,98633.38
2022-08-31T06:08:49.979Z,98633.38
2022-08-31T06:09:51.384Z,98633.00
2022-08-31T06:10:53.805Z,98637.22
2022-08-31T06:11:55.218Z,98636.44
2022-08-31T06:12:56.578Z,98634.88
2022-08-31T06:13:58.980Z,98636.44
2022-08-31T06:15:00.919Z,98638.75
2022-08-31T06:16:02.801Z,98643.00
2022-08-31T06:17:04.675Z,98644.97
2022-08-31T06:18:06.313Z,98636.50
2022-08-31T06:19:07.768Z,98642.28
2022-08-31T06:20:14.263Z,98643.06
2022-08-31T06:21:24.298Z,98644.63
2022-08-31T06:22:26.112Z,98648.06
2022-08-31T06:23:29.425Z,98645.75
2022-08-31T06:24:31.287Z,98648.06
2022-08-31T06:25:33.125Z,98650.50
2022-08-31T06:26:35.967Z,98650.44
2022-08-31T06:27:39.756Z,98652.78
2022-08-31T06:28:42.834Z,98655.47
2022-08-31T06:29:44.592Z,98653.28
2022-08-31T06:30:54.950Z,98653.28
2022-08-31T06:31:57.851Z,98643.94
2022-08-31T06:32:59.251Z,98650.50
2022-08-31T06:34:10.493Z,98651.66
2022-08-31T06:35:38.113Z,98655.81
2022-08-31T06:36:58.190Z,98645.38
2022-08-31T06:38:22.316Z,98649.66
2022-08-31T06:39:45.056Z,98655.72
2022-08-31T06:40:46.670Z,98650.78
2022-08-31T06:42:08.327Z,98649.66
2022-08-31T06:43:44.007Z,98652.63
2022-08-31T06:45:20.686Z,98660.34
2022-08-31T06:46:31.900Z,98656.50
2022-08-31T06:47:43.743Z,98653.47
2022-08-31T06:48:45.924Z,98658.50
2022-08-31T06:49:47.318Z,98659.72
2022-08-31T06:50:55.675Z,98660.16
2022-08-31T06:51:57.132Z,98662.09
2022-08-31T06:52:58.591Z,98661.81
2022-08-31T06:54:30.884Z,98665.16
2022-08-31T06:55:50.872Z,98666.41
2022-08-31T06:57:10.791Z,98665.00
2022-08-31T06:58:30.769Z,98670.44
2022-08-31T06:59:54.296Z,98666.28
2022-08-31T07:01:26.344Z,98667.13
2022-08-31T07:02:57.503Z,98661.00
2022-08-31T07:04:00.420Z,98668.75
2022-08-31T07:05:02.258Z,98672.59
2022-08-31T07:06:14.115Z,98668.00
2022-08-31T07:07:15.500Z,98666.22
2022-08-31T07:08:16.999Z,98665.50
2022-08-31T07:09:18.442Z,98671.72
2022-08-31T07:10:19.889Z,98670.94
2022-08-31T07:11:22.877Z,98664.41
2022-08-31T07:12:24.555Z,98667.88
2022-08-31T07:13:25.909Z,98666.69
2022-08-31T07:14:27.529Z,98669.09
2022-08-31T07:15:30.845Z,98670.22
2022-08-31T07:16:32.431Z,98663.94
2022-08-31T07:17:34.354Z,98669.31
2022-08-31T07:18:38.666Z,98667.78
2022-08-31T07:19:44.841Z,98665.84
2022-08-31T07:20:46.652Z,98660.09
2022-08-31T07:21:50.048Z,98664.78
2022-08-31T07:22:51.660Z,98669.31
2022-08-31T07:24:06.649Z,98666.56
2022-08-31T07:25:08.604Z,98666.63
2022-08-31T07:26:11.964Z,98667.00
2022-08-31T07:27:13.443Z,98670.47
2022-08-31T07:28:30.074Z,98658.19
2022-08-31T07:29:33.202Z,98669.31
2022-08-31T07:30:34.759Z,98665.63
2022-08-31T07:31:37.828Z,98664.84
2022-08-31T07:32:39.484Z,98667.47
2022-08-31T07:33:40.841Z,98665.97
2022-08-31T07:34:42.621Z,98666.47
2022-08-31T07:36:14.377Z,98674.53
2022-08-31T07:37:34.671Z,98671.16
2022-08-31T07:38:37.299Z,98672.00
2022-08-31T07:39:40.320Z,98669.00
2022-08-31T07:40:41.903Z,98664.78
2022-08-31T07:41:45.332Z,98674.41
2022-08-31T07:42:46.796Z,98676.97
2022-08-31T07:43:48.612Z,98671.94
2022-08-31T07:44:53.561Z,98674.69
2022-08-31T07:45:55.527Z,98679.34
2022-08-31T07:46:59.888Z,98674.78
2022-08-31T07:48:02.153Z,98674.50
2022-08-31T07:49:15.924Z,98679.53
2022-08-31T07:50:36.300Z,98679.53
2022-08-31T07:51:55.593Z,98675.78
2022-08-31T07:53:09.823Z,98678.03
2022-08-31T07:54:34.477Z,98679.94
2022-08-31T07:55:54.815Z,98684.97
2022-08-31T07:57:06.524Z,98687.00
2022-08-31T07:58:08.002Z,98691.69
2022-08-31T07:59:11.181Z,98694.81
2022-08-31T08:00:18.173Z,98687.50
2022-08-31T08:01:22.568Z,98697.19
2022-08-31T08:02:28.372Z,98696.44
2022-08-31T08:03:29.816Z,98694.19
2022-08-31T08:04:49.845Z,98703.44
2022-08-31T08:06:23.376Z,98703.03
2022-08-31T08:07:37.810Z,98700.34
2022-08-31T08:09:22.220Z,98705.34
2022-08-31T08:10:52.572Z,98705.34
2022-08-31T08:12:14.860Z,98701.50
2022-08-31T08:13:19.307Z,98698.44
2022-08-31T08:14:30.178Z,98710.34
2022-08-31T08:16:04.227Z,98711.19
2022-08-31T08:17:29.807Z,98709.50
2022-08-31T08:18:42.908Z,98708.44
2022-08-31T08:19:44.715Z,98708.38
2022-08-31T08:20:46.189Z,98709.09
2022-08-31T08:21:48.036Z,98716.41
2022-08-31T08:22:56.021Z,98712.25
2022-08-31T08:24:06.174Z,98708.69
2022-08-31T08:25:43.700Z,98707.78
2022-08-31T08:26:54.490Z,98713.16
2022-08-31T08:28:35.971Z,98712.72
2022-08-31T08:29:34.264Z,98712.72
2022-08-31T08:30:37.540Z,98710.09
2022-08-31T08:31:39.750Z,98712.09
2022-08-31T08:32:42.028Z,98716.75
2022-08-31T08:33:44.020Z,98707.50
2022-08-31T08:34:45.455Z,98715.19
2022-08-31T08:35:53.819Z,98716.75
2022-08-31T08:36:55.219Z,98719.03
2022-08-31T08:37:59.897Z,98713.66
2022-08-31T08:39:05.506Z,98714.44
2022-08-31T08:40:09.346Z,98718.59
2022-08-31T08:41:19.739Z,98714.72
2022-08-31T08:42:22.545Z,98718.59
2022-08-31T08:43:31.067Z,98715.47
2022-08-31T08:44:32.700Z,98714.44
2022-08-31T08:45:35.231Z,98710.19
2022-08-31T08:46:46.538Z,98708.94
2022-08-31T08:47:48.787Z,98714.34
2022-08-31T08:48:55.311Z,98708.59
2022-08-31T08:49:59.643Z,98717.13
2022-08-31T08:51:02.424Z,98715.78
2022-08-31T08:52:23.498Z,98725.00
2022-08-31T08:53:26.124Z,98719.19
2022-08-31T08:54:43.594Z,98716.91
2022-08-31T08:55:45.944Z,98728.53
2022-08-31T08:56:48.191Z,98728.44
2022-08-31T08:57:53.377Z,98732.25
2022-08-31T08:58:55.792Z,98727.69
2022-08-31T09:00:10.529Z,98725.06
2022-08-31T09:01:18.609Z,98734.81
2022-08-31T09:02:43.099Z,98733.34
2022-08-31T09:03:47.745Z,98738.34
2022-08-31T09:05:14.779Z,98733.03
2022-08-31T09:06:26.599Z,98734.13
2022-08-31T09:07:49.042Z,98735.66
2022-08-31T09:08:53.217Z,98741.94
2022-08-31T09:10:00.679Z,98736.63
2022-08-31T09:11:02.027Z,98746.34
2022-08-31T09:12:30.749Z,98735.09
2022-08-31T09:13:38.173Z,98738.63
2022-08-31T09:14:54.566Z,98739.50
2022-08-31T09:16:15.237Z,98733.50
2022-08-31T09:17:40.669Z,98736.50
2022-08-31T09:18:45.305Z,98740.06
2022-08-31T09:19:47.259Z,98741.66
2022-08-31T09:21:20.770Z,98738.19
2022-08-31T09:22:23.264Z,98742.69
2022-08-31T09:23:25.628Z,98744.63
2022-08-31T09:24:28.873Z,98737.78
2022-08-31T09:25:49.987Z,98741.34
2022-08-31T09:27:12.623Z,98740.28
2022-08-31T09:28:13.997Z,98740.63
2022-08-31T09:29:25.396Z,98736.38
2022-08-31T09:30:32.470Z,98737.53
2022-08-31T09:31:36.656Z,98734.13
2022-08-31T09:32:38.182Z,98735.44
2022-08-31T09:33:47.188Z,98732.84
2022-08-31T09:34:53.295Z,98736.28
2022-08-31T09:36:12.615Z,98740.53
2022-08-31T09:37:24.699Z,98741.97
2022-08-31T09:38:33.383Z,98747.94
2022-08-31T09:39:36.908Z,98741.06
2022-08-31T09:40:44.031Z,98746.53
2022-08-31T09:41:46.731Z,98746.22
2022-08-31T09:43:03.392Z,98748.94
2022-08-31T09:44:40.154Z,98743.63
2022-08-31T09:45:51.271Z,98747.50
2022-08-31T09:46:55.059Z,98747.22
2022-08-31T09:47:57.405Z,98746.06
2022-08-31T09:48:59.860Z,98746.44
2022-08-31T09:50:01.212Z,98743.84
2022-08-31T09:51:05.977Z,98741.16
2022-08-31T09:52:19.167Z,98737.75
2022-08-31T09:53:22.167Z,98738.59
2022-08-31T09:54:24.316Z,98737.81
2022-08-31T09:55:27.301Z,98739.84
2022-08-31T09:56:28.723Z,98732.81
2022-08-31T09:57:43.886Z,98736.25
2022-08-31T09:58:45.308Z,98735.59
2022-08-31T09:59:47.988Z,98739.44
2022-08-31T10:00:49.532Z,98742.19
2022-08-31T10:01:51.068Z,98748.34
2022-08-31T10:02:56.730Z,98749.84
2022-08-31T10:04:08.836Z,98746.03
2022-08-31T10:05:48.592Z,98750.53
2022-08-31T10:06:49.966Z,98741.31
2022-08-31T10:07:55.465Z,98740.63
2022-08-31T10:08:58.975Z,98739.53
2022-08-31T10:10:30.446Z,98746.56
2022-08-31T10:11:34.293Z,98743.13
2022-08-31T10:12:41.431Z,98742.47
2022-08-31T10:14:08.888Z,98742.13
2022-08-31T10:15:17.559Z,98743.38
2022-08-31T10:16:18.917Z,98744.59
2022-08-31T10:17:32.364Z,98741.91
2022-08-31T10:18:39.515Z,98741.19
2022-08-31T10:19:49.100Z,98745.84
2022-08-31T10:20:52.568Z,98744.31
2022-08-31T10:21:58.123Z,98741.56
2022-08-31T10:23:06.677Z,98747.34
2022-08-31T10:24:11.167Z,98744.34
2022-08-31T10:25:18.523Z,98739.34
2022-08-31T10:26:40.127Z,98740.84
2022-08-31T10:27:53.344Z,98745.50
2022-08-31T10:28:57.579Z,98745.41
2022-08-31T10:30:11.406Z,98740.78
2022-08-31T10:31:20.315Z,98747.41
2022-08-31T10:32:21.660Z,98743.19
2022-08-31T10:33:24.878Z,98745.13
2022-08-31T10:34:34.129Z,98738.97
2022-08-31T10:35:52.490Z,98750.22
2022-08-31T10:36:59.050Z,98740.19
2022-08-31T10:38:06.690Z,98742.50
2022-08-31T10:39:16.212Z,98740.22
2022-08-31T10:40:37.919Z,98742.19
2022-08-31T10:41:42.747Z,98740.28
2022-08-31T10:43:01.239Z,98739.91
2022-08-31T10:44:22.579Z,98736.06
2022-08-31T10:45:25.592Z,98739.22
2022-08-31T10:46:27.298Z,98738.88
2022-08-31T10:47:33.804Z,98740.03
2022-08-31T10:48:35.853Z,98739.22
2022-08-31T10:49:37.553Z,98747.38
2022-08-31T10:50:39.223Z,98736.91
2022-08-31T10:51:59.422Z,98739.59
2022-08-31T10:53:07.100Z,98739.22
2022-08-31T10:54:17.529Z,98738.00
2022-08-31T10:55:25.023Z,98742.25
2022-08-31T10:56:26.363Z,98737.94
2022-08-31T10:57:46.652Z,98740.69
2022-08-31T10:58:59.235Z,98734.84
2022-08-31T11:00:06.498Z,98735.56
2022-08-31T11:01:25.932Z,98740.19
2022-08-31T11:02:42.408Z,98734.34
2022-08-31T11:03:52.028Z,98737.75
2022-08-31T11:05:22.851Z,98741.56
2022-08-31T11:06:24.188Z,98734.63
2022-08-31T11:07:28.658Z,98739.22
2022-08-31T11:08:41.968Z,98737.63
2022-08-31T11:09:56.056Z,98736.81
2022-08-31T11:10:58.559Z,98738.31
2022-08-31T11:12:02.635Z,98738.25
2022-08-31T11:13:07.580Z,98738.28
2022-08-31T11:14:08.963Z,98742.91
2022-08-31T11:15:16.347Z,98737.91
2022-08-31T11:16:24.816Z,98737.56
2022-08-31T11:17:44.443Z,98740.69
2022-08-31T11:19:12.183Z,98738.75
2022-08-31T11:20:27.605Z,98739.09
2022-08-31T11:21:47.057Z,98746.09
2022-08-31T11:22:57.897Z,98742.91
2022-08-31T11:24:19.702Z,98739.00
2022-08-31T11:25:21.028Z,98738.13
2022-08-31T11:26:41.184Z,98737.72
2022-08-31T11:27:46.391Z,98735.03
2022-08-31T11:28:54.016Z,98732.72
2022-08-31T11:29:55.413Z,98734.22
2022-08-31T11:30:56.948Z,98734.13
2022-08-31T11:32:04.513Z,98734.50
2022-08-31T11:33:10.354Z,98729.50
2022-08-31T11:34:17.469Z,98732.53
2022-08-31T11:35:40.657Z,98739.03
2022-08-31T11:36:48.293Z,98737.16
2022-08-31T11:37:51.076Z,98726.84
2022-08-31T11:39:01.361Z,98734.22
2022-08-31T11:40:02.926Z,98736.88
2022-08-31T11:41:04.450Z,98732.97
2022-08-31T11:42:31.992Z,98739.00
2022-08-31T11:43:33.357Z,98734.78
2022-08-31T11:44:37.697Z,98734.75
2022-08-31T11:45:39.395Z,98734.03
2022-08-31T11:46:42.003Z,98737.13
2022-08-31T11:47:43.957Z,98734.13
2022-08-31T11:48:51.371Z,98737.59
2022-08-31T11:49:53.789Z,98726.47
2022-08-31T11:50:55.619Z,98733.06
2022-08-31T11:51:57.140Z,98736.19
2022-08-31T11:52:59.575Z,98732.00
2022-08-31T11:54:03.246Z,98731.91
2022-08-31T11:55:07.175Z,98725.78
2022-08-31T11:56:08.629Z,98726.59
2022-08-31T11:57:14.809Z,98732.06
2022-08-31T11:58:20.692Z,98724.81
2022-08-31T11:59:28.207Z,98729.53
2022-08-31T12:00:41.510Z,98726.28
2022-08-31T12:01:42.899Z,98728.28
2022-08-31T12:02:44.679Z,98728.31
2022-08-31T12:03:46.121Z,98727.63
2022-08-31T12:04:47.465Z,98723.03
2022-08-31T12:05:48.941Z,98721.53
2022-08-31T12:06:50.299Z,98722.75
2022-08-31T12:07:51.768Z,98726.22
2022-08-31T12:09:13.211Z,98726.22
2022-08-31T12:10:32.813Z,98730.50
2022-08-31T12:11:34.164Z,98729.38
2022-08-31T12:12:50.785Z,98729.41
2022-08-31T12:14:08.027Z,98726.78
2022-08-31T12:15:12.207Z,98722.56
2022-08-31T12:16:33.842Z,98717.50
2022-08-31T12:17:53.762Z,98727.91
2022-08-31T12:19:21.453Z,98719.06
2022-08-31T12:20:41.668Z,98718.81
2022-08-31T12:21:54.797Z,98716.81
2022-08-31T12:23:08.619Z,98717.59
2022-08-31T12:24:09.950Z,98716.09
2022-08-31T12:25:39.745Z,98718.06
2022-08-31T12:26:47.643Z,98711.50
2022-08-31T12:27:58.227Z,98716.16
2022-08-31T12:29:18.367Z,98715.03
2022-08-31T12:30:22.068Z,98719.72
2022-08-31T12:31:24.053Z,98710.84
2022-08-31T12:32:28.478Z,98706.22
2022-08-31T12:33:30.225Z,98709.31
2022-08-31T12:34:31.957Z,98707.34
2022-08-31T12:35:33.708Z,98707.72
2022-08-31T12:36:36.894Z,98700.00
2022-08-31T12:37:39.449Z,98701.56
2022-08-31T12:38:41.045Z,98706.63
2022-08-31T12:39:42.394Z,98702.41
2022-08-31T12:40:46.655Z,98707.84
2022-08-31T12:41:56.167Z,98698.94
2022-08-31T12:43:14.023Z,98702.44
2022-08-31T12:44:22.863Z,98702.44
2022-08-31T12:45:36.596Z,98703.59
2022-08-31T12:46:37.956Z,98700.88
2022-08-31T12:47:48.471Z,98697.75
2022-08-31T12:49:02.967Z,98698.56
2022-08-31T12:50:26.189Z,98698.56
2022-08-31T12:51:27.520Z,98695.47
2022-08-31T12:52:34.678Z,98689.66
2022-08-31T12:53:41.836Z,98687.31
2022-08-31T12:54:43.151Z,98690.44
2022-08-31T12:55:58.339Z,98685.03
2022-08-31T12:57:07.061Z,98680.38
2022-08-31T12:59:59.846Z,98676.53
2022-08-31T13:01:11.358Z,98681.16
2022-08-31T13:02:13.356Z,98678.03
2022-08-31T13:03:21.557Z,98678.41
2022-08-31T13:04:23.756Z,98672.63